Time;durP1;ratioP1;P1;durP2;ratioP2;P2;SDS_P1;SDS_P2;PMS_P1;PMS_P2;Temp;Humidity;BMP_temperature;BMP_pressure;BME280_temperature;BME280_humidity;BME280_pressure;Samples;Min_cycle;Max_cycle;Signal;HPM_P1;HPM_P2
2022/09/02 00:01:43;;;;;;;7.47;3.85;;;;;;;20.64;88.97;100584.56;4997923;28;20034;-87
2022/09/02 00:04:12;;;;;;;12.25;4.32;;;;;;;20.65;88.71;100580.88;4995826;28;20065;-87
2022/09/02 00:06:39;;;;;;;4.78;3.78;;;;;;;20.54;89.31;100566.84;4995574;28;20038;-86
2022/09/02 00:09:07;;;;;;;6.30;4.25;;;;;;;20.57;89.13;100569.16;4994249;28;20444;-87
2022/09/02 00:11:34;;;;;;;7.97;3.90;;;;;;;20.40;90.44;100568.34;4996530;28;20049;-87
2022/09/02 00:14:04;;;;;;;11.02;4.05;;;;;;;20.44;90.38;100567.97;4994192;28;20412;-87
2022/09/02 00:16:32;;;;;;;9.43;4.70;;;;;;;20.32;91.31;100564.78;4997483;28;20049;-87
2022/09/02 00:18:57;;;;;;;7.03;4.50;;;;;;;20.11;92.49;100558.09;4995455;28;20030;-87
2022/09/02 00:21:24;;;;;;;8.48;5.40;;;;;;;20.12;92.77;100558.94;4995542;28;20045;-87
2022/09/02 00:23:49;;;;;;;10.77;5.45;;;;;;;20.16;92.64;100560.25;4995396;28;20034;-87
2022/09/02 00:26:16;;;;;;;11.55;5.32;;;;;;;20.15;92.98;100551.44;4996389;28;20052;-87
2022/09/02 00:28:42;;;;;;;8.25;5.20;;;;;;;20.18;93.20;100548.47;4995112;28;20093;-87
2022/09/02 00:31:07;;;;;;;7.88;5.38;;;;;;;20.19;93.20;100547.44;4995010;28;20018;-87
2022/09/02 00:33:33;;;;;;;7.50;5.78;;;;;;;19.94;95.29;100545.72;4995188;28;20030;-87
2022/09/02 00:36:00;;;;;;;10.85;6.30;;;;;;;20.09;94.84;100538.78;5009285;28;20083;-87
2022/09/02 00:38:27;;;;;;;9.00;6.05;;;;;;;20.09;95.32;100548.59;5014845;28;20026;-87
2022/09/02 00:40:53;;;;;;;8.98;5.90;;;;;;;20.09;95.31;100546.75;5012939;28;20022;-87
2022/09/02 00:43:38;;;;;;;8.77;6.25;;;;;;;20.12;95.78;100542.94;5014831;28;20530;-87
2022/09/02 00:46:04;;;;;;;12.20;6.72;;;;;;;19.95;96.63;100537.56;5013972;28;20034;-87
2022/09/02 00:48:30;;;;;;;9.52;6.88;;;;;;;19.89;97.14;100534.72;5014291;28;20069;-87
2022/09/02 00:50:56;;;;;;;12.40;6.18;;;;;;;19.81;96.77;100535.53;5000843;28;20472;-87
2022/09/02 00:53:21;;;;;;;11.52;6.35;;;;;;;19.77;97.54;100535.00;4993507;28;20030;-87
2022/09/02 00:55:49;;;;;;;7.55;5.25;;;;;;;19.93;96.62;100536.06;4998399;28;20049;-87
2022/09/02 00:58:20;;;;;;;9.68;6.60;;;;;;;19.81;97.62;100540.84;5014171;28;20025;-87
2022/09/02 01:00:48;;;;;;;6.63;5.32;;;;;;;19.69;98.21;100531.44;5010097;28;20038;-87
2022/09/02 01:03:18;;;;;;;10.40;6.07;;;;;;;19.44;100.00;100533.19;4995671;28;20034;-87
2022/09/02 01:05:47;;;;;;;8.15;5.70;;;;;;;19.66;99.17;100531.78;5004525;28;20430;-88
2022/09/02 01:08:15;;;;;;;16.08;7.10;;;;;;;19.40;100.00;100522.84;5014169;28;20258;-87
2022/09/02 01:10:42;;;;;;;8.20;6.53;;;;;;;19.61;99.39;100529.59;5012179;28;20048;-87
2022/09/02 01:13:11;;;;;;;8.52;6.78;;;;;;;19.23;100.00;100513.09;5014086;28;20030;-87
2022/09/02 01:15:42;;;;;;;15.07;7.43;;;;;;;19.42;100.00;100515.50;5012358;28;20103;-87
2022/09/02 01:18:12;;;;;;;12.05;7.47;;;;;;;19.41;100.00;100516.53;5014048;28;20018;-87
2022/09/02 01:20:38;;;;;;;11.82;7.25;;;;;;;19.28;100.00;100507.31;5012337;28;20029;-87
2022/09/02 01:23:03;;;;;;;10.85;7.22;;;;;;;19.32;100.00;100504.16;5012623;28;20022;-87
2022/09/02 01:25:31;;;;;;;11.43;7.07;;;;;;;19.31;100.00;100501.66;5014087;28;20018;-87
2022/09/02 01:27:59;;;;;;;19.02;7.85;;;;;;;19.47;100.00;100506.22;5013514;28;20530;-87
2022/09/02 01:30:25;;;;;;;9.30;6.50;;;;;;;19.45;100.00;100502.88;5003519;28;20110;-87
2022/09/02 01:32:51;;;;;;;10.07;6.90;;;;;;;19.62;100.00;100504.63;4994138;28;20030;-87
2022/09/02 01:35:17;;;;;;;13.93;7.25;;;;;;;19.55;100.00;100499.09;5003631;28;20061;-87
2022/09/02 01:37:44;;;;;;;10.25;7.28;;;;;;;19.26;100.00;100496.81;5013412;28;20084;-87
2022/09/02 01:40:13;;;;;;;16.10;7.00;;;;;;;19.51;100.00;100502.22;5013147;28;20026;-87
2022/09/02 01:42:40;;;;;;;10.65;7.00;;;;;;;19.49;100.00;100501.56;5012081;28;20026;-87
2022/09/02 01:45:07;;;;;;;9.43;6.88;;;;;;;19.52;100.00;100502.06;5011840;28;20033;-87
2022/09/02 01:47:34;;;;;;;9.57;6.80;;;;;;;19.70;100.00;100507.31;5012029;28;20040;-87
2022/09/02 01:49:59;;;;;;;11.43;6.25;;;;;;;19.57;100.00;100498.97;5004739;28;20056;-87
2022/09/02 01:52:27;;;;;;;9.27;6.38;;;;;;;19.66;100.00;100503.28;4993577;28;20027;-87
2022/09/02 01:54:54;;;;;;;13.23;7.30;;;;;;;19.46;100.00;100502.72;4994659;28;20547;-87
2022/09/02 01:57:19;;;;;;;9.70;7.80;;;;;;;19.38;100.00;100498.19;4993255;28;20080;-87
2022/09/02 01:59:45;;;;;;;10.98;7.05;;;;;;;19.38;100.00;100503.50;4993657;28;20026;-87
2022/09/02 02:02:12;;;;;;;10.95;7.18;;;;;;;19.36;100.00;100499.34;4993434;28;20499;-87
2022/09/02 02:04:37;;;;;;;10.25;7.00;;;;;;;19.28;100.00;100497.47;4993788;28;20026;-87
2022/09/02 02:07:04;;;;;;;12.18;6.60;;;;;;;19.32;100.00;100501.50;4994371;28;20022;-87
2022/09/02 02:09:29;;;;;;;10.20;7.38;;;;;;;19.07;100.00;100494.38;5011305;28;20530;-87
2022/09/02 02:11:54;;;;;;;12.88;7.95;;;;;;;19.08;100.00;100490.72;5012073;28;20022;-87
2022/09/02 02:14:20;;;;;;;11.55;7.03;;;;;;;19.15;100.00;100497.91;5012936;28;20108;-87
2022/09/02 02:16:46;;;;;;;9.80;7.25;;;;;;;19.21;100.00;100496.44;5012703;28;20030;-87
2022/09/02 02:19:12;;;;;;;11.75;6.82;;;;;;;19.07;100.00;100495.19;5011086;28;20045;-87
2022/09/02 02:21:37;;;;;;;11.55;7.38;;;;;;;19.13;100.00;100483.91;5012827;28;20464;-87
2022/09/02 02:24:03;;;;;;;12.57;6.97;;;;;;;19.34;100.00;100491.53;4997841;28;20026;-87
2022/09/02 02:26:29;;;;;;;7.75;6.95;;;;;;;19.16;100.00;100482.78;4994874;28;20030;-87
2022/09/02 02:28:54;;;;;;;14.27;6.10;;;;;;;19.26;100.00;100482.66;4991656;28;20037;-87
2022/09/02 02:31:20;;;;;;;14.18;7.18;;;;;;;19.15;100.00;100487.25;4991838;28;20084;-87
2022/09/02 02:33:46;;;;;;;11.18;6.82;;;;;;;19.32;100.00;100482.84;4994188;28;20034;-87
2022/09/02 02:36:13;;;;;;;11.70;6.65;;;;;;;19.22;100.00;100482.97;4992954;28;20511;-87
2022/09/02 02:38:39;;;;;;;10.38;5.70;;;;;;;19.11;100.00;100474.44;4992529;28;20488;-87
2022/09/02 02:41:05;;;;;;;9.02;5.78;;;;;;;18.93;100.00;100472.66;4994715;28;20026;-87
2022/09/02 02:43:33;;;;;;;9.02;5.75;;;;;;;19.10;100.00;100467.44;4992564;28;20499;-87
2022/09/02 02:45:58;;;;;;;8.60;5.18;;;;;;;19.16;100.00;100462.31;5000990;28;20042;-87
2022/09/02 02:48:24;;;;;;;15.07;5.85;;;;;;;18.96;100.00;100472.34;5008480;28;20125;-87
2022/09/02 02:50:49;;;;;;;11.85;5.03;;;;;;;19.14;100.00;100463.47;4995232;28;20033;-87
2022/09/02 02:53:16;;;;;;;8.60;5.10;;;;;;;19.03;100.00;100462.72;4992635;28;20046;-88
2022/09/02 02:55:42;;;;;;;10.30;5.10;;;;;;;19.07;100.00;100452.63;4992498;28;20435;-87
2022/09/02 02:58:07;;;;;;;9.55;5.28;;;;;;;19.04;100.00;100458.28;4994995;28;20022;-87
2022/09/02 03:00:33;;;;;;;9.05;4.60;;;;;;;18.87;100.00;100446.69;5003450;28;20026;-87
2022/09/02 03:03:03;;;;;;;11.55;4.80;;;;;;;18.82;100.00;100447.16;4992467;28;20068;-87
2022/09/02 03:05:29;;;;;;;9.50;5.05;;;;;;;18.91;100.00;100437.41;4991341;28;20030;-87
2022/09/02 03:07:55;;;;;;;12.52;4.47;;;;;;;18.93;100.00;100438.06;4992521;28;20388;-87
2022/09/02 03:10:21;;;;;;;19.88;5.70;;;;;;;18.82;100.00;100443.69;4992433;28;20036;-87
2022/09/02 03:12:46;;;;;;;13.55;4.85;;;;;;;18.89;100.00;100433.25;4992504;28;20109;-88
2022/09/02 03:15:15;;;;;;;8.70;4.05;;;;;;;18.88;100.00;100436.88;4994049;28;20176;-87
2022/09/02 03:17:47;;;;;;;7.55;4.30;;;;;;;18.96;100.00;100434.28;5009953;28;20196;-88
2022/09/02 03:20:14;;;;;;;;;;;;;;;18.72;100.00;100438.44;5012503;28;20511;-87
2022/09/02 03:22:41;;;;;;;10.85;4.90;;;;;;;18.66;100.00;100446.19;5012074;28;19913;-88
2022/09/02 03:25:09;;;;;;;12.73;4.90;;;;;;;18.79;100.00;100433.31;5015854;28;20092;-87
2022/09/02 03:27:37;;;;;;;7.63;3.95;;;;;;;18.73;100.00;100426.78;5015906;28;20569;-88
2022/09/02 03:30:05;;;;;;;9.77;3.70;;;;;;;18.68;100.00;100430.91;5013734;28;20035;-88
2022/09/02 03:32:30;;;;;;;7.07;3.67;;;;;;;18.67;100.00;100429.25;4999097;28;20605;-88
2022/09/02 03:34:55;;;;;;;7.35;3.28;;;;;;;18.85;100.00;100427.38;4997912;28;20661;-88
2022/09/02 03:37:21;;;;;;;8.63;3.92;;;;;;;18.71;100.00;100433.25;5013995;28;20095;-87
2022/09/02 03:39:46;;;;;;;11.95;4.40;;;;;;;18.72;100.00;100435.78;5015955;28;20066;-87
2022/09/02 03:42:12;;;;;;;8.30;3.92;;;;;;;18.54;100.00;100441.13;5015170;28;20068;-87
2022/09/02 03:44:40;;;;;;;11.18;3.80;;;;;;;18.60;100.00;100439.66;5015580;28;20022;-87
2022/09/02 03:47:06;;;;;;;10.20;3.80;;;;;;;18.59;100.00;100438.84;5004121;28;20089;-87
2022/09/02 03:49:32;;;;;;;5.80;3.75;;;;;;;18.66;100.00;100433.75;5003254;28;20038;-87
2022/09/02 03:51:58;;;;;;;8.00;3.13;;;;;;;18.61;100.00;100442.16;4997644;28;20435;-87
2022/09/02 03:54:24;;;;;;;11.93;3.90;;;;;;;18.55;100.00;100436.66;5015343;28;20116;-86
2022/09/02 03:56:49;;;;;;;7.15;3.80;;;;;;;18.66;100.00;100446.19;5013629;28;20026;-87
2022/09/02 03:59:16;;;;;;;8.00;3.45;;;;;;;18.47;100.00;100428.63;5014663;28;20392;-87
2022/09/02 04:01:41;;;;;;;8.73;3.40;;;;;;;18.59;100.00;100436.16;5014044;28;20026;-87
2022/09/02 04:04:07;;;;;;;15.77;3.45;;;;;;;18.55;100.00;100426.84;5013739;28;20029;-87
2022/09/02 04:06:33;;;;;;;10.32;3.45;;;;;;;18.50;100.00;100422.97;5014834;28;20526;-87
2022/09/02 04:08:59;;;;;;;8.70;4.10;;;;;;;18.57;100.00;100422.19;5011443;28;20034;-87
2022/09/02 04:11:24;;;;;;;14.70;3.53;;;;;;;18.68;100.00;100425.59;5008650;28;20376;-87
2022/09/02 04:13:52;;;;;;;13.00;3.55;;;;;;;18.68;100.00;100426.44;5012780;28;20041;-87
2022/09/02 04:16:26;;;;;;;8.23;3.85;;;;;;;18.52;100.00;100426.31;5013884;28;20034;-87
2022/09/02 04:18:52;;;;;;;13.90;4.55;;;;;;;18.45;100.00;100417.31;5015546;28;20049;-87
2022/09/02 04:21:18;;;;;;;6.68;3.50;;;;;;;18.50;100.00;100423.81;5014996;28;20491;-87
2022/09/02 04:23:44;;;;;;;7.32;3.92;;;;;;;18.35;100.00;100414.75;5015066;28;20030;-87
2022/09/02 04:26:13;;;;;;;7.50;3.70;;;;;;;18.66;100.00;100416.94;5015069;28;20087;-87
2022/09/02 04:28:40;;;;;;;7.93;3.97;;;;;;;18.39;100.00;100416.94;5014246;28;20032;-87
2022/09/02 04:31:14;;;;;;;6.20;3.40;;;;;;;18.29;100.00;100410.88;5015373;28;20026;-87
2022/09/02 04:33:40;;;;;;;11.70;4.28;;;;;;;18.41;100.00;100420.25;5014481;28;20028;-87
2022/09/02 04:36:07;;;;;;;11.13;4.20;;;;;;;18.59;100.00;100406.91;5014306;28;20029;-87
2022/09/02 04:38:33;;;;;;;10.27;3.38;;;;;;;18.80;100.00;100409.25;5014434;28;20121;-87
2022/09/02 04:40:59;;;;;;;12.05;4.13;;;;;;;18.58;100.00;100399.94;5014288;28;20104;-87
2022/09/02 04:43:24;;;;;;;15.25;4.10;;;;;;;18.31;100.00;100405.41;5013540;28;20480;-87
2022/09/02 04:45:50;;;;;;;13.60;4.53;;;;;;;18.35;100.00;100409.41;5014427;28;20076;-87
2022/09/02 04:48:17;;;;;;;12.13;3.88;;;;;;;18.27;100.00;100404.88;5014313;28;20026;-87
2022/09/02 04:50:44;;;;;;;14.48;4.45;;;;;;;18.25;100.00;100396.22;5014544;28;20468;-87
2022/09/02 04:53:10;;;;;;;12.77;4.00;;;;;;;18.45;100.00;100393.38;5014476;28;20109;-87
2022/09/02 04:55:39;;;;;;;12.43;4.00;;;;;;;18.47;100.00;100400.19;5014250;28;20444;-87
2022/09/02 04:58:04;;;;;;;9.88;3.70;;;;;;;18.34;100.00;100405.09;5013015;28;20476;-87
2022/09/02 05:00:30;;;;;;;12.60;4.40;;;;;;;18.38;100.00;100398.47;5014356;28;20033;-87
2022/09/02 05:02:55;;;;;;;7.93;3.25;;;;;;;18.40;100.00;100393.81;5012920;28;20030;-87
2022/09/02 05:05:20;;;;;;;20.70;5.35;;;;;;;18.37;100.00;100396.81;5012978;28;20053;-87
2022/09/02 05:07:46;;;;;;;10.98;4.22;;;;;;;18.28;100.00;100387.09;5013901;28;20026;-87
2022/09/02 05:10:14;;;;;;;9.15;4.07;;;;;;;18.20;100.00;100385.22;5014210;28;20469;-87
2022/09/02 05:12:40;;;;;;;10.40;4.95;;;;;;;18.24;100.00;100392.72;4999181;28;20022;-87
2022/09/02 05:15:07;;;;;;;8.25;3.70;;;;;;;18.43;100.00;100388.22;4994346;28;20034;-87
2022/09/02 05:17:34;;;;;;;7.03;4.15;;;;;;;18.46;100.00;100390.53;4994153;28;20065;-87
2022/09/02 05:20:00;;;;;;;10.15;4.10;;;;;;;18.47;100.00;100381.59;4993047;28;20033;-87
2022/09/02 05:22:28;;;;;;;11.07;4.55;;;;;;;18.39;100.00;100390.34;4994527;28;20030;-87
2022/09/02 05:24:54;;;;;;;14.43;4.10;;;;;;;18.53;100.00;100386.28;4992925;28;20037;-87
2022/09/02 05:27:19;;;;;;;10.50;3.60;;;;;;;18.61;100.00;100386.31;5003674;28;20030;-87
2022/09/02 05:29:44;;;;;;;19.27;4.60;;;;;;;18.60;100.00;100387.34;5012584;28;20380;-86
2022/09/02 05:32:10;;;;;;;10.70;4.13;;;;;;;18.62;100.00;100401.31;5012362;28;20041;-87
2022/09/02 05:34:35;;;;;;;11.02;4.10;;;;;;;18.60;100.00;100392.66;5013559;28;20578;-87
2022/09/02 05:37:02;;;;;;;10.75;3.70;;;;;;;18.47;100.00;100396.72;5013361;28;20537;-87
2022/09/02 05:39:28;;;;;;;11.27;3.83;;;;;;;18.69;100.00;100395.34;5013441;28;20056;-86
2022/09/02 05:41:53;;;;;;;12.40;4.05;;;;;;;18.80;100.00;100392.47;5011845;28;20030;-86
2022/09/02 05:44:18;;;;;;;6.97;3.45;;;;;;;18.55;100.00;100397.59;5013376;28;20109;-86
2022/09/02 05:46:44;;;;;;;11.43;4.00;;;;;;;18.38;100.00;100398.47;5012545;28;20029;-86
2022/09/02 05:49:16;;;;;;;12.48;3.97;;;;;;;18.54;100.00;100390.63;5013207;28;20036;-87
2022/09/02 05:51:44;;;;;;;12.20;4.03;;;;;;;18.62;100.00;100389.81;5013274;28;20026;-86
2022/09/02 05:54:21;;;;;;;8.82;4.00;;;;;;;18.69;100.00;100390.03;5013208;28;20076;-86
2022/09/02 05:56:52;;;;;;;10.70;3.60;;;;;;;18.69;100.00;100390.88;5009516;28;20034;-87
2022/09/02 05:59:19;;;;;;;13.70;4.40;;;;;;;18.59;100.00;100404.25;5012974;28;20441;-86
2022/09/02 06:01:46;;;;;;;9.65;3.63;;;;;;;18.82;100.00;100401.13;5013024;28;20029;-86
2022/09/02 06:04:12;;;;;;;11.00;4.45;;;;;;;18.90;100.00;100398.50;5012799;28;20052;-86
2022/09/02 06:06:38;;;;;;;11.10;4.47;;;;;;;18.77;100.00;100403.38;5031811;28;20467;-86
2022/09/02 06:09:07;;;;;;;11.93;3.38;;;;;;;19.00;100.00;100409.84;5032571;28;20025;-86
2022/09/02 06:11:34;;;;;;;12.40;4.22;;;;;;;18.78;100.00;100410.38;5018163;28;20029;-86
2022/09/02 06:14:00;;;;;;;13.60;4.57;;;;;;;18.74;100.00;100409.00;5012442;28;20029;-86
2022/09/02 06:16:26;;;;;;;8.80;3.75;;;;;;;19.06;100.00;100413.72;5015257;28;20025;-86
2022/09/02 06:18:51;;;;;;;15.15;3.78;;;;;;;18.80;100.00;100405.75;5032103;28;20100;-86
2022/09/02 06:21:19;;;;;;;10.93;3.75;;;;;;;19.32;100.00;100408.31;5021979;28;20026;-86
2022/09/02 06:23:45;;;;;;;9.90;4.10;;;;;;;19.59;100.00;100406.41;5011430;28;20018;-86
2022/09/02 06:26:12;;;;;;;11.45;3.55;;;;;;;19.76;100.00;100409.97;5002032;28;20117;-86
2022/09/02 06:28:37;;;;;;;8.18;3.22;;;;;;;19.68;100.00;100402.75;5005469;28;20046;-86
2022/09/02 06:31:14;;;;;;;13.40;3.20;;;;;;;19.72;100.00;100404.13;5012282;28;20115;-86
2022/09/02 06:33:42;;;;;;;13.40;3.85;;;;;;;19.92;100.00;100406.47;5007888;28;20391;-86
2022/09/02 06:36:11;;;;;;;11.02;3.60;;;;;;;19.88;100.00;100407.81;5012282;28;20026;-86
2022/09/02 06:38:42;;;;;;;10.48;3.53;;;;;;;19.73;100.00;100400.47;4999648;28;20030;-86
2022/09/02 06:41:11;;;;;;;14.40;3.22;;;;;;;19.85;100.00;100400.16;5002582;28;20041;-87
2022/09/02 06:43:36;;;;;;;9.18;3.33;;;;;;;19.74;100.00;100394.13;4992347;28;20042;-87
2022/09/02 06:46:02;;;;;;;11.05;3.28;;;;;;;20.16;100.00;100400.31;5004431;28;20089;-87
2022/09/02 06:48:27;;;;;;;10.70;3.08;;;;;;;19.99;100.00;100407.50;4992492;28;20392;-86
2022/09/02 06:50:54;;;;;;;6.25;2.35;;;;;;;20.33;100.00;100398.50;4992344;28;20034;-87
2022/09/02 06:53:19;;;;;;;10.63;3.25;;;;;;;20.31;100.00;100404.00;5003232;28;20050;-86
2022/09/02 06:55:45;;;;;;;9.68;2.75;;;;;;;20.20;100.00;100407.84;4999273;28;20026;-86
2022/09/02 06:58:12;;;;;;;11.30;3.88;;;;;;;19.99;100.00;100411.00;5010707;28;20776;-86
2022/09/02 07:00:39;;;;;;;7.18;2.90;;;;;;;20.56;100.00;100420.81;5002249;28;20418;-89
2022/09/02 07:05:59;;;;;;;10.93;2.60;;;;;;;20.88;100.00;100415.59;5000209;28;20045;-86
2022/09/02 07:08:25;;;;;;;8.85;2.90;;;;;;;20.83;100.00;100413.44;5001073;28;20109;-87
2022/09/02 07:10:50;;;;;;;13.35;3.50;;;;;;;20.74;100.00;100409.97;4997913;28;20105;-88
2022/09/02 07:13:15;;;;;;;15.48;3.13;;;;;;;20.81;100.00;100410.09;5010435;28;20276;-87
2022/09/02 07:15:41;;;;;;;12.70;2.88;;;;;;;21.13;100.00;100406.50;5012050;28;20645;-92
2022/09/02 07:18:06;;;;;;;7.10;2.97;;;;;;;21.28;100.00;100400.44;5012625;28;20037;-88
2022/09/02 07:20:31;;;;;;;6.50;2.72;;;;;;;21.52;99.56;100394.97;5009033;28;20034;-87
2022/09/02 07:22:57;;;;;;;10.77;3.28;;;;;;;21.57;99.26;100405.16;5011848;28;20499;-87
2022/09/02 07:25:22;;;;;;;8.75;3.10;;;;;;;21.92;97.95;100397.56;5003729;28;20476;-87
2022/09/02 07:27:50;;;;;;;6.85;2.60;;;;;;;22.14;95.55;100396.72;4998498;28;20086;-87
2022/09/02 07:30:15;;;;;;;12.05;3.35;;;;;;;21.91;96.14;100390.56;5006775;28;20480;-88
2022/09/02 07:32:41;;;;;;;7.32;3.25;;;;;;;21.63;98.16;100391.09;5001734;28;20029;-88
2022/09/02 07:35:08;;;;;;;8.52;3.30;;;;;;;21.41;99.59;100389.19;5012790;28;20030;-89
2022/09/02 07:37:33;;;;;;;9.48;2.65;;;;;;;21.69;98.64;100385.03;5020710;28;20037;-88
2022/09/02 07:40:04;;;;;;;7.25;2.58;;;;;;;21.46;100.00;100389.50;5024947;28;20546;-88
2022/09/02 07:42:29;;;;;;;8.50;2.58;;;;;;;21.56;97.89;100379.44;5027757;28;20030;-88
2022/09/02 07:44:54;;;;;;;11.82;3.60;;;;;;;21.50;98.50;100372.94;5005578;28;20072;-88
2022/09/02 07:47:20;;;;;;;9.00;3.42;;;;;;;21.72;97.49;100382.00;5000872;28;20034;-88
2022/09/02 07:49:45;;;;;;;12.88;3.30;;;;;;;21.61;98.48;100378.91;5005387;28;20022;-88
2022/09/02 07:52:11;;;;;;;12.80;3.95;;;;;;;21.76;97.15;100377.13;5010932;28;20032;-89
2022/09/02 07:54:36;;;;;;;16.35;3.67;;;;;;;22.08;94.23;100384.06;5022080;28;20029;-89
2022/09/02 07:57:01;;;;;;;10.30;3.03;;;;;;;22.76;92.08;100374.22;5007736;28;20208;-89
2022/09/02 07:59:27;;;;;;;11.25;3.25;;;;;;;22.82;91.05;100372.66;5002148;28;20070;-89
2022/09/02 08:01:53;;;;;;;9.35;2.80;;;;;;;23.08;90.10;100361.50;5006849;28;20026;-89
2022/09/02 08:04:22;;;;;;;7.72;2.30;;;;;;;23.62;87.47;100376.34;4995754;28;20033;-88
2022/09/02 08:06:49;;;;;;;11.23;2.17;;;;;;;23.93;84.99;100377.88;5010057;28;20038;-89
2022/09/02 08:09:14;;;;;;;11.45;2.88;;;;;;;25.91;76.67;100371.09;5003035;28;20036;-88
2022/09/02 08:11:43;;;;;;;8.70;2.00;;;;;;;25.11;77.73;100381.59;5013964;28;20108;-95
2022/09/02 08:14:13;;;;;;;8.07;2.25;;;;;;;24.96;79.90;100377.38;5005694;28;20022;-89
2022/09/02 08:16:38;;;;;;;13.85;3.30;;;;;;;24.43;80.71;100372.53;5014674;28;20423;-91
2022/09/02 08:19:06;;;;;;;8.75;2.80;;;;;;;25.05;77.80;100368.13;5021086;28;20041;-89
2022/09/02 08:21:31;;;;;;;16.20;2.90;;;;;;;25.20;77.54;100358.09;5007288;28;20042;-89
2022/09/02 08:23:57;;;;;;;10.45;2.70;;;;;;;25.62;75.12;100371.44;5002813;28;20504;-90
2022/09/02 08:26:23;;;;;;;6.75;3.05;;;;;;;26.10;73.05;100369.44;5011858;28;20065;-90
2022/09/02 08:28:48;;;;;;;14.45;3.08;;;;;;;27.22;67.99;100357.81;5005329;28;20032;-91
2022/09/02 08:31:14;;;;;;;8.50;2.90;;;;;;;29.25;58.30;100372.69;4999933;28;20495;-91
2022/09/02 08:33:39;;;;;;;10.05;2.35;;;;;;;32.95;48.52;100342.06;5007255;28;20384;-91
2022/09/02 08:36:10;;;;;;;6.25;2.25;;;;;;;33.44;44.11;100366.56;5011971;28;20543;-91
2022/09/02 08:38:36;;;;;;;;;;;;;;;31.63;47.40;100356.97;4999186;28;20393;-91
2022/09/02 08:41:01;;;;;;;;;;;;;;;30.66;48.26;100362.34;5014650;28;19918;-91
2022/09/02 08:43:30;;;;;;;;;;;;;;;29.21;52.44;100360.69;5015192;28;19913;-91
2022/09/02 08:45:59;;;;;;;;;;;;;;;28.71;55.19;100365.41;5015102;28;19918;-91
2022/09/02 08:48:33;;;;;;;;;;;;;;;30.33;51.17;100351.06;5015210;28;19921;-91
2022/09/02 08:51:02;;;;;;;;;;;;;;;34.35;41.97;100343.91;5015969;28;19914;-91
2022/09/02 08:53:46;;;;;;;;;;;;;;;32.94;43.18;100341.25;5009268;28;20300;-92
2022/09/02 08:56:13;;;;;;;;;;;;;;;32.15;44.89;100346.94;5012801;28;20268;-92
2022/09/02 08:58:40;;;;;;;;;;;;;;;31.27;46.96;100352.75;5014550;28;19933;-92
2022/09/02 09:01:16;;;;;;;;;;;;;;;29.50;50.35;100350.06;5014353;28;19917;-91
2022/09/02 09:04:01;;;;;;;;;;;;;;;29.38;51.82;100357.34;5007558;28;19913;-90
2022/09/02 09:06:47;;;;;;;;;;;;;;;28.52;53.29;100351.09;5007994;28;20291;-92
2022/09/02 09:09:12;;;;;;;;;;;;;;;28.05;56.70;100352.31;5006671;28;19992;-92
2022/09/02 09:11:47;;;;;;;7.53;2.60;;;;;;;28.15;57.31;100353.69;5011822;28;20363;-92
2022/09/02 09:14:23;;;;;;;5.60;2.63;;;;;;;29.10;55.10;100350.59;5012328;28;20029;-91
2022/09/02 09:17:01;;;;;;;10.40;2.83;;;;;;;30.04;53.32;100347.41;5013619;28;20657;-92
2022/09/02 09:19:52;;;;;;;7.82;2.00;;;;;;;34.21;42.14;100337.28;5015016;28;20034;-91
2022/09/02 09:22:18;;;;;;;;;;;;;;;32.15;44.67;100336.09;5016265;28;20022;-92
2022/09/02 09:24:45;;;;;;;11.20;2.20;;;;;;;33.55;42.00;100332.09;5014738;28;19921;-92
2022/09/02 09:27:16;;;;;;;;;;;;;;;34.05;41.04;100344.50;5015756;28;20057;-91
2022/09/02 09:29:41;;;;;;;;;;;;;;;34.55;39.77;100337.72;5013406;28;19972;-92
2022/09/02 09:32:26;;;;;;;;;;;;;;;35.56;38.03;100332.03;5014315;28;19913;-91
2022/09/02 09:34:51;;;;;;;;;;;;;;;37.07;36.72;100324.84;5015997;28;19921;-92
2022/09/02 09:37:27;;;;;;;;;;;;;;;39.81;31.24;100311.28;5015784;28;19921;-92
2022/09/02 09:39:52;;;;;;;;;;;;;;;39.43;30.70;100311.38;5015597;28;20020;-93
2022/09/02 09:42:28;;;;;;;;;;;;;;;39.60;30.30;100310.81;5018288;28;19960;-93
2022/09/02 09:44:53;;;;;;;;;;;;;;;40.05;29.31;100307.53;5014771;28;19917;-93
2022/09/02 09:47:21;;;;;;;;;;;;;;;40.23;28.95;100312.16;5014541;28;19921;-93
2022/09/02 09:49:51;;;;;;;;;;;;;;;41.60;27.95;100311.31;5015492;28;20012;-93
2022/09/02 09:52:26;;;;;;;;;;;;;;;42.45;26.60;100305.75;5016018;28;19936;-93
2022/09/02 09:55:05;;;;;;;;;;;;;;;43.01;26.15;100305.97;5014450;28;19920;-94
2022/09/02 09:57:30;;;;;;;;;;;;;;;43.50;24.90;100295.53;5015573;28;20387;-93
2022/09/02 10:00:00;;;;;;;;;;;;;;;44.79;24.66;100290.88;5012860;28;20009;-93
2022/09/02 10:02:26;;;;;;;;;;;;;;;42.65;25.28;100286.94;5015473;28;19988;-93
2022/09/02 10:04:53;;;;;;;;;;;;;;;41.37;26.22;100283.81;5014172;28;19913;-92
2022/09/02 10:07:38;;;;;;;;;;;;;;;40.38;27.13;100278.03;5014523;28;19917;-93
2022/09/02 10:10:20;;;;;;;;;;;;;;;39.52;28.83;100274.97;5015199;28;20357;-92
2022/09/02 10:12:48;;;;;;;;;;;;;;;39.25;28.96;100265.50;5015088;28;20387;-92
2022/09/02 10:15:13;;;;;;;;;;;;;;;39.80;28.93;100262.91;5013749;28;19924;-92
2022/09/02 10:17:56;;;;;;;;;;;;;;;41.42;27.50;100264.38;5015186;28;19913;-92
2022/09/02 10:20:41;;;;;;;;;;;;;;;38.85;29.54;100263.06;5015576;28;19967;-92
2022/09/02 10:23:12;;;;;;;;;;;;;;;35.38;33.51;100267.06;5014693;28;19917;-92
2022/09/02 10:25:42;;;;;;;;;;;;;;;34.36;35.32;100277.41;5014012;28;19946;-91
2022/09/02 10:28:25;;;;;;;;;;;;;;;35.50;34.35;100273.88;5014765;28;19936;-91
2022/09/02 10:30:59;;;;;;;;;;;;;;;33.87;36.70;100276.81;5011585;28;19921;-91
2022/09/02 10:33:28;;;;;;;7.80;1.88;;;;;;;32.41;39.35;100272.91;5012720;28;19963;-90
2022/09/02 10:36:12;;;;;;;8.65;2.35;;;;;;;33.43;38.44;100261.50;5013736;28;20080;-90
2022/09/02 10:38:43;;;;;;;11.23;2.30;;;;;;;33.33;39.00;100261.41;5008614;28;20603;-90
2022/09/02 10:41:41;;;;;;;9.82;2.22;;;;;;;35.00;36.78;100261.00;5013764;28;20108;-90
2022/09/02 10:44:33;;;;;;;12.18;3.05;;;;;;;34.19;37.67;100267.78;5001487;28;20057;-90
2022/09/02 10:47:13;;;;;;;7.07;2.50;;;;;;;32.07;39.83;100265.91;5008876;28;20041;-90
2022/09/02 10:50:03;;;;;;;8.20;2.70;;;;;;;32.31;40.04;100258.38;5010743;28;20033;-91
2022/09/02 10:53:01;;;;;;;10.30;2.88;;;;;;;30.61;42.90;100268.25;5003806;28;20064;-90
2022/09/02 10:55:40;;;;;;;8.13;2.90;;;;;;;29.97;44.12;100265.47;5012318;28;20037;-89
2022/09/02 10:58:20;;;;;;;9.48;2.83;;;;;;;29.38;45.48;100270.78;5009199;28;20459;-90
2022/09/02 11:00:49;;;;;;;13.05;2.88;;;;;;;29.94;44.88;100269.47;5011381;28;20110;-89
2022/09/02 11:03:23;;;;;;;8.98;2.47;;;;;;;29.79;45.51;100266.41;4997993;28;20057;-89
2022/09/02 11:05:51;;;;;;;8.13;2.58;;;;;;;30.29;45.34;100263.19;5010737;28;20435;-89
2022/09/02 11:08:26;;;;;;;12.27;3.10;;;;;;;30.20;45.34;100270.06;5012190;28;20040;-90
2022/09/02 11:10:57;;;;;;;9.52;3.13;;;;;;;29.89;45.41;100268.53;5011813;28;20033;-90
2022/09/02 11:13:53;;;;;;;8.10;3.33;;;;;;;29.88;45.15;100254.19;5011303;28;20426;-90
2022/09/02 11:16:26;;;;;;;9.13;2.90;;;;;;;29.18;46.65;100262.97;4998389;28;20038;-90
2022/09/02 11:19:01;;;;;;;8.80;3.05;;;;;;;29.21;46.79;100252.53;5006427;28;20034;-90
2022/09/02 11:21:49;;;;;;;12.73;2.60;;;;;;;30.02;44.12;100252.88;5010360;28;20026;-89
2022/09/02 11:24:20;;;;;;;11.05;2.78;;;;;;;30.04;44.72;100253.47;5013040;28;20030;-90
2022/09/02 11:26:59;;;;;;;;;;;;;;;31.49;42.24;100249.81;5009574;28;20066;-89
2022/09/02 11:29:56;;;;;;;7.78;3.08;;;;;;;30.78;41.51;100250.13;5009028;28;19989;-90
2022/09/02 11:32:33;;;;;;;8.70;2.60;;;;;;;31.06;41.09;100243.06;4993677;28;20030;-90
2022/09/02 11:35:07;;;;;;;6.35;2.95;;;;;;;31.68;39.08;100241.44;5003514;28;20040;-90
2022/09/02 11:37:40;;;;;;;7.97;2.88;;;;;;;33.68;35.79;100238.31;5012406;28;20476;-90